createdAt,value
2016-04-04T00:00:48.843Z,945.5
2016-04-04T00:01:48.862Z,945.48
2016-04-04T00:02:48.879Z,945.53
2016-04-04T00:03:48.899Z,945.58
2016-04-04T00:04:48.932Z,945.56
2016-04-04T00:05:48.951Z,945.54
2016-04-04T00:06:48.969Z,945.54
2016-04-04T00:07:48.987Z,945.51
2016-04-04T00:08:49.021Z,945.53
2016-04-04T00:09:49.039Z,945.47
2016-04-04T00:10:49.058Z,945.45
2016-04-04T00:11:49.076Z,945.45
2016-04-04T00:12:49.095Z,945.44
2016-04-04T00:13:49.128Z,945.41
2016-04-04T00:14:49.147Z,945.45
2016-04-04T00:15:49.165Z,945.4
2016-04-04T00:16:49.184Z,945.39
2016-04-04T00:17:49.202Z,945.41
2016-04-04T00:18:49.251Z,945.33
2016-04-04T00:19:49.238Z,945.31
2016-04-04T00:20:49.272Z,945.31
2016-04-04T00:21:49.291Z,945.27
2016-04-04T00:22:49.309Z,945.28
2016-04-04T00:23:49.343Z,945.25
2016-04-04T00:24:49.361Z,945.27
2016-04-04T00:25:49.379Z,945.27
2016-04-04T00:26:49.398Z,945.29
2016-04-04T00:27:49.416Z,945.3
2016-04-04T00:28:49.450Z,945.29
2016-04-04T00:29:49.452Z,945.23
2016-04-04T00:30:49.487Z,945.26
2016-04-04T00:31:49.504Z,945.25
2016-04-04T00:32:49.523Z,945.27
2016-04-04T00:33:49.542Z,945.27
2016-04-04T00:34:49.560Z,945.24
2016-04-04T00:35:49.593Z,945.27
2016-04-04T00:36:49.612Z,945.21
2016-04-04T00:37:49.630Z,945.23
2016-04-04T00:38:49.648Z,945.21
2016-04-04T00:39:49.668Z,945.23
2016-04-04T00:40:49.700Z,945.16
2016-04-04T00:41:49.720Z,945.17
2016-04-04T00:42:49.737Z,945.16
2016-04-04T00:43:49.755Z,945.16
2016-04-04T00:44:49.774Z,945.17
2016-04-04T00:45:49.809Z,945.16
2016-04-04T00:46:49.827Z,945.15
2016-04-04T00:47:49.845Z,945.13
2016-04-04T00:48:49.863Z,945.14
2016-04-04T00:49:49.881Z,945.13
2016-04-04T00:50:49.899Z,945.09
2016-04-04T00:51:49.933Z,945.13
2016-04-04T00:52:49.952Z,945.07
2016-04-04T00:53:49.971Z,945.05
2016-04-04T00:54:49.988Z,945.13
2016-04-04T00:55:50.022Z,945.1
2016-04-04T00:56:50.041Z,945.13
2016-04-04T00:57:50.060Z,945.12
2016-04-04T00:58:50.093Z,945.22
2016-04-04T00:59:50.096Z,945.12
2016-04-04T01:00:50.114Z,945.09
2016-04-04T01:01:50.132Z,945.1
2016-04-04T01:02:50.151Z,945.05
2016-04-04T01:03:50.185Z,945.06
2016-04-04T01:04:50.204Z,945.05
2016-04-04T01:05:50.221Z,945.04
2016-04-04T01:06:50.240Z,945.05
2016-04-04T01:07:50.259Z,945.07
2016-04-04T01:08:50.277Z,945
2016-04-04T01:09:50.310Z,944.95
2016-04-04T01:10:50.329Z,944.97
2016-04-04T01:11:50.363Z,944.98
2016-04-04T01:12:50.365Z,944.95
2016-04-04T01:13:50.384Z,944.94
2016-04-04T01:14:50.417Z,944.94
2016-04-04T01:15:50.436Z,944.95
2016-04-04T01:16:50.454Z,944.9
2016-04-04T01:17:50.472Z,944.94
2016-04-04T01:18:50.491Z,944.96
2016-04-04T01:19:50.525Z,944.93
2016-04-04T01:20:50.543Z,944.9
2016-04-04T01:21:50.561Z,944.94
2016-04-04T01:22:50.580Z,944.93
2016-04-04T01:23:50.598Z,944.96
2016-04-04T01:24:50.633Z,944.95
2016-04-04T01:25:50.650Z,944.94
2016-04-04T01:26:50.669Z,944.97
2016-04-04T01:27:50.702Z,944.91
2016-04-04T01:28:50.705Z,944.95
2016-04-04T01:29:50.723Z,944.93
2016-04-04T01:30:50.757Z,944.92
2016-04-04T01:31:50.776Z,944.97
2016-04-04T01:32:50.794Z,944.91
2016-04-04T01:33:50.813Z,944.89
2016-04-04T01:34:50.831Z,944.91
2016-04-04T01:35:50.849Z,944.96
2016-04-04T01:36:50.883Z,944.96
2016-04-04T01:37:50.902Z,944.97
2016-04-04T01:38:50.920Z,944.93
2016-04-04T01:39:50.938Z,944.89
2016-04-04T01:40:50.957Z,944.94
2016-04-04T01:41:50.990Z,944.91
2016-04-04T01:42:51.009Z,944.88
2016-04-04T01:43:51.026Z,944.93
2016-04-04T01:44:51.045Z,944.89
2016-04-04T01:45:51.064Z,944.85
2016-04-04T01:46:51.081Z,944.85
2016-04-04T01:47:51.116Z,944.89
2016-04-04T01:48:51.133Z,944.85
2016-04-04T01:49:51.152Z,944.81
2016-04-04T01:50:51.170Z,944.83
2016-04-04T01:51:51.204Z,944.82
2016-04-04T01:52:51.222Z,944.9
2016-04-04T01:53:51.241Z,944.87
2016-04-04T01:54:51.259Z,944.84
2016-04-04T01:55:51.277Z,944.85
2016-04-04T01:56:51.296Z,944.81
2016-04-04T01:57:51.330Z,944.8
2016-04-04T01:58:51.348Z,944.81
2016-04-04T01:59:51.366Z,944.83
2016-04-04T02:00:51.390Z,944.87
2016-04-04T02:01:51.408Z,944.9
2016-04-04T02:02:51.427Z,944.86
2016-04-04T02:03:51.445Z,944.8
2016-04-04T02:04:51.479Z,944.82
2016-04-04T02:05:51.497Z,944.79
2016-04-04T02:06:51.515Z,944.81
2016-04-04T02:07:51.534Z,944.81
2016-04-04T02:08:51.551Z,944.78
2016-04-04T02:09:51.586Z,944.81
2016-04-04T02:10:51.604Z,944.79
2016-04-04T02:11:51.623Z,944.76
2016-04-04T02:12:51.641Z,944.73
2016-04-04T02:13:51.659Z,944.74
2016-04-04T02:14:51.693Z,944.69
2016-04-04T02:15:51.712Z,944.68
2016-04-04T02:16:51.730Z,944.71
2016-04-04T02:17:51.748Z,944.66
2016-04-04T02:18:51.766Z,944.69
2016-04-04T02:19:51.800Z,944.66
2016-04-04T02:20:51.834Z,944.67
2016-04-04T02:21:51.853Z,944.67
2016-04-04T02:22:51.872Z,944.74
2016-04-04T02:23:51.889Z,944.67
2016-04-04T02:24:51.908Z,944.69
2016-04-04T02:25:51.926Z,944.59
2016-04-04T02:26:51.960Z,944.56
2016-04-04T02:27:51.994Z,944.6
2016-04-04T02:28:52.013Z,944.63
2016-04-04T02:29:52.015Z,944.6
2016-04-04T02:30:52.236Z,944.62
2016-04-04T02:31:52.052Z,944.59
2016-04-04T02:32:52.070Z,944.54
2016-04-04T02:33:52.104Z,944.62
2016-04-04T02:34:52.122Z,944.58
2016-04-04T02:35:52.140Z,944.59
2016-04-04T02:36:52.159Z,944.53
2016-04-04T02:37:52.177Z,944.55
2016-04-04T02:38:52.195Z,944.6
2016-04-04T02:39:52.229Z,944.59
2016-04-04T02:40:52.248Z,944.51
2016-04-04T02:41:52.265Z,944.57
2016-04-04T02:42:52.284Z,944.51
2016-04-04T02:43:52.318Z,944.54
2016-04-04T02:44:52.337Z,944.53
2016-04-04T02:45:52.355Z,944.52
2016-04-04T02:46:52.373Z,944.55
2016-04-04T02:47:52.392Z,944.54
2016-04-04T02:48:52.409Z,944.5
2016-04-04T02:49:52.444Z,944.49
2016-04-04T02:50:52.461Z,944.52
2016-04-04T02:51:52.496Z,944.48
2016-04-04T02:52:52.499Z,944.52
2016-04-04T02:53:52.516Z,944.51
2016-04-04T02:54:52.550Z,944.56
2016-04-04T02:55:52.569Z,944.58
2016-04-04T02:56:52.587Z,944.53
2016-04-04T02:57:52.606Z,944.54
2016-04-04T02:58:52.624Z,944.54
2016-04-04T02:59:52.658Z,944.51
2016-04-04T03:00:52.676Z,944.53
2016-04-04T03:01:52.695Z,944.49
2016-04-04T03:02:52.713Z,944.45
2016-04-04T03:03:52.731Z,944.52
2016-04-04T03:04:52.766Z,944.45
2016-04-04T03:05:52.784Z,944.49
2016-04-04T03:06:52.802Z,944.47
2016-04-04T03:07:52.860Z,944.45
2016-04-04T03:08:52.863Z,944.43
2016-04-04T03:09:52.866Z,944.5
2016-04-04T03:11:52.918Z,944.45
2016-04-04T03:12:52.936Z,944.43
2016-04-04T03:13:52.954Z,944.41
2016-04-04T03:14:52.973Z,944.41
2016-04-04T03:15:52.991Z,944.47
2016-04-04T03:16:53.025Z,944.45
2016-04-04T03:17:53.043Z,944.42
2016-04-04T03:18:53.062Z,944.4
2016-04-04T03:19:53.112Z,944.4
2016-04-04T03:20:53.114Z,944.41
2016-04-04T03:21:53.132Z,944.45
2016-04-04T03:22:53.151Z,944.41
2016-04-04T03:23:53.169Z,944.47
2016-04-04T03:24:53.187Z,944.45
2016-04-04T03:25:53.206Z,944.46
2016-04-04T03:26:53.239Z,944.47
2016-04-04T03:27:53.258Z,944.45
2016-04-04T03:28:53.276Z,944.52
2016-04-04T03:29:53.294Z,944.44
2016-04-04T03:30:53.313Z,944.47
2016-04-04T03:31:53.347Z,944.47
2016-04-04T03:32:53.364Z,944.45
2016-04-04T03:33:53.383Z,944.45
2016-04-04T03:34:53.402Z,944.45
2016-04-04T03:35:53.420Z,944.45
2016-04-04T03:36:53.438Z,944.44
2016-04-04T03:37:53.472Z,944.46
2016-04-04T03:38:53.491Z,944.44
2016-04-04T03:39:53.509Z,944.43
2016-04-04T03:40:53.527Z,944.46
2016-04-04T03:41:53.545Z,944.48
2016-04-04T03:42:53.596Z,944.5
2016-04-04T03:43:53.598Z,944.49
2016-04-04T03:44:53.631Z,944.46
2016-04-04T03:45:53.635Z,944.51
2016-04-04T03:46:53.653Z,944.48
2016-04-04T03:47:53.687Z,944.54
2016-04-04T03:48:53.704Z,944.55
2016-04-04T03:49:53.724Z,944.56
2016-04-04T03:50:53.742Z,944.52
2016-04-04T03:51:53.759Z,944.5
2016-04-04T03:52:53.793Z,944.52
2016-04-04T03:53:53.812Z,944.49
2016-04-04T03:54:53.831Z,944.52
2016-04-04T03:55:53.848Z,944.5
2016-04-04T03:56:53.867Z,944.5
2016-04-04T03:57:53.901Z,944.49
2016-04-04T03:58:53.920Z,944.52
2016-04-04T03:59:53.937Z,944.5
2016-04-04T04:00:53.956Z,944.49
2016-04-04T04:01:53.975Z,944.46
2016-04-04T04:02:53.992Z,944.5
2016-04-04T04:03:54.027Z,944.48
2016-04-04T04:04:54.045Z,944.46
2016-04-04T04:05:54.064Z,944.5
2016-04-04T04:06:54.082Z,944.45
2016-04-04T04:07:54.101Z,944.45
2016-04-04T04:08:54.134Z,944.46
2016-04-04T04:09:54.153Z,944.49
2016-04-04T04:10:54.172Z,944.42
2016-04-04T04:11:54.189Z,944.39
2016-04-04T04:12:54.208Z,944.47
2016-04-04T04:13:54.226Z,944.46
2016-04-04T04:14:54.261Z,944.44
2016-04-04T04:15:54.278Z,944.44
2016-04-04T04:16:54.297Z,944.46
2016-04-04T04:17:54.316Z,944.41
2016-04-04T04:18:54.333Z,944.52
2016-04-04T04:19:54.352Z,944.44
2016-04-04T04:20:54.385Z,944.48
2016-04-04T04:21:54.405Z,944.47
2016-04-04T04:22:54.438Z,944.5
2016-04-04T04:23:54.440Z,944.5
2016-04-04T04:24:54.460Z,944.54
2016-04-04T04:25:54.493Z,944.54
2016-04-04T04:26:54.511Z,944.54
2016-04-04T04:27:54.529Z,944.62
2016-04-04T04:28:54.549Z,944.66
2016-04-04T04:29:54.566Z,944.63
2016-04-04T04:30:54.584Z,944.62
2016-04-04T04:31:54.618Z,944.64
2016-04-04T04:32:54.636Z,944.67
2016-04-04T04:33:54.655Z,944.69
2016-04-04T04:34:54.673Z,944.7
2016-04-04T04:35:54.692Z,944.67
2016-04-04T04:36:54.726Z,944.67
2016-04-04T04:37:54.744Z,944.66
2016-04-04T04:38:54.762Z,944.7
2016-04-04T04:39:54.780Z,944.72
2016-04-04T04:40:54.799Z,944.78
2016-04-04T04:41:54.833Z,944.75
2016-04-04T04:42:54.851Z,944.81
2016-04-04T04:43:54.869Z,944.78
2016-04-04T04:44:54.888Z,944.79
2016-04-04T04:45:54.937Z,944.81
2016-04-04T04:46:54.924Z,944.78
2016-04-04T04:47:54.958Z,944.82
2016-04-04T04:48:54.977Z,944.91
2016-04-04T04:49:54.995Z,944.86
2016-04-04T04:50:55.013Z,944.94
2016-04-04T04:51:55.032Z,944.86
2016-04-04T04:52:55.050Z,944.95
2016-04-04T04:53:55.099Z,945
2016-04-04T04:54:55.102Z,944.97
2016-04-04T04:55:55.120Z,945.01
2016-04-04T04:56:55.138Z,945
2016-04-04T04:57:55.157Z,945.1
2016-04-04T04:58:55.176Z,945.11
2016-04-04T04:59:55.209Z,945.13
2016-04-04T05:00:55.227Z,945.14
2016-04-04T05:01:55.246Z,945.11
2016-04-04T05:02:55.264Z,945.09
2016-04-04T05:03:55.283Z,945.13
2016-04-04T05:04:55.301Z,945.09
2016-04-04T05:05:55.320Z,945.03
2016-04-04T05:06:55.353Z,945.05
2016-04-04T05:07:55.371Z,945.06
2016-04-04T05:08:55.390Z,945.07
2016-04-04T05:09:55.408Z,945.15
2016-04-04T05:10:55.426Z,945.18
2016-04-04T05:11:55.444Z,945.14
2016-04-04T05:12:55.464Z,945.16
2016-04-04T05:13:55.481Z,945.19
2016-04-04T05:14:55.514Z,945.15
2016-04-04T05:15:55.534Z,945.12
2016-04-04T05:16:55.553Z,945.14
2016-04-04T05:17:55.570Z,945.14
2016-04-04T05:18:55.588Z,945.17
2016-04-04T05:19:55.608Z,945.18
2016-04-04T05:20:55.625Z,945.22
2016-04-04T05:21:55.643Z,945.28
2016-04-04T05:22:55.661Z,945.25
2016-04-04T05:23:55.683Z,945.28
2016-04-04T05:24:55.714Z,945.27
2016-04-04T05:25:55.716Z,945.32
2016-04-04T05:26:55.755Z,945.31
2016-04-04T05:27:55.785Z,945.34
2016-04-04T05:28:55.787Z,945.36
2016-04-04T05:29:55.805Z,945.32
2016-04-04T05:30:55.824Z,945.33
2016-04-04T05:31:55.843Z,945.34
2016-04-04T05:32:55.860Z,945.33
2016-04-04T05:33:55.879Z,945.33
2016-04-04T05:34:55.943Z,945.33
2016-04-04T05:35:55.931Z,945.32
2016-04-04T05:36:55.949Z,945.32
2016-04-04T05:37:55.968Z,945.32
2016-04-04T05:38:55.987Z,945.33
2016-04-04T05:39:56.004Z,945.34
2016-04-04T05:40:56.023Z,945.39
2016-04-04T05:41:56.041Z,945.36
2016-04-04T05:42:56.059Z,945.38
2016-04-04T05:43:56.078Z,945.38
2016-04-04T05:44:56.111Z,945.36
2016-04-04T05:45:56.131Z,945.37
2016-04-04T05:46:56.148Z,945.37
2016-04-04T05:47:56.167Z,945.38
2016-04-04T05:48:56.186Z,945.35
2016-04-04T05:49:56.203Z,945.37
2016-04-04T05:50:56.222Z,945.39
2016-04-04T05:51:56.255Z,945.37
2016-04-04T05:52:56.274Z,945.39
2016-04-04T05:53:56.291Z,945.4
2016-04-04T05:54:56.311Z,945.38
2016-04-04T05:55:56.329Z,945.4
2016-04-04T05:56:56.346Z,945.4
2016-04-04T05:57:56.366Z,945.41
2016-04-04T05:58:56.384Z,945.39
2016-04-04T05:59:56.402Z,945.36
2016-04-04T06:00:56.435Z,945.37
2016-04-04T06:01:56.454Z,945.39
2016-04-04T06:02:56.473Z,945.39
2016-04-04T06:03:56.506Z,945.36
2016-04-04T06:04:56.509Z,945.37
2016-04-04T06:05:56.527Z,945.41
2016-04-04T06:06:56.562Z,945.4
2016-04-04T06:07:56.579Z,945.42
2016-04-04T06:08:56.598Z,945.4
2016-04-04T06:09:56.617Z,945.4
2016-04-04T06:10:56.634Z,945.38
2016-04-04T06:11:56.653Z,945.41
2016-04-04T06:12:56.671Z,945.42
2016-04-04T06:13:56.705Z,945.44
2016-04-04T06:14:56.708Z,945.42
2016-04-04T06:15:56.742Z,945.46
2016-04-04T06:16:56.760Z,945.46
2016-04-04T06:17:56.778Z,945.49
2016-04-04T06:18:56.797Z,945.54
2016-04-04T06:19:56.815Z,945.49
2016-04-04T06:20:56.833Z,945.52
2016-04-04T06:21:56.867Z,945.48
2016-04-04T06:22:56.886Z,945.47
2016-04-04T06:23:56.904Z,945.49
2016-04-04T06:24:56.922Z,945.44
2016-04-04T06:25:56.940Z,945.46
2016-04-04T06:26:56.958Z,945.48
2016-04-04T06:27:56.977Z,945.48
2016-04-04T06:28:57.010Z,945.46
2016-04-04T06:29:57.030Z,945.45
2016-04-04T06:30:57.048Z,945.46
2016-04-04T06:31:57.082Z,945.45
2016-04-04T06:32:57.099Z,945.46
2016-04-04T06:33:57.103Z,945.48
2016-04-04T06:34:57.137Z,945.46
2016-04-04T06:35:57.154Z,945.47
2016-04-04T06:36:57.174Z,945.47
2016-04-04T06:37:57.192Z,945.49
2016-04-04T06:38:57.210Z,945.5
2016-04-04T06:39:57.243Z,945.52
2016-04-04T06:40:57.262Z,945.47
2016-04-04T06:41:57.281Z,945.52
2016-04-04T06:42:57.298Z,945.55
2016-04-04T06:43:57.317Z,945.54
2016-04-04T06:44:57.336Z,945.56
2016-04-04T06:45:57.370Z,945.57
2016-04-04T06:46:57.387Z,945.53
2016-04-04T06:47:57.406Z,945.55
2016-04-04T06:48:57.425Z,945.59
2016-04-04T06:49:57.442Z,945.57
2016-04-04T06:50:57.461Z,945.6
2016-04-04T06:51:57.494Z,945.57
2016-04-04T06:52:57.513Z,945.61
2016-04-04T06:53:57.531Z,945.59
2016-04-04T06:54:57.566Z,945.58
2016-04-04T06:55:57.568Z,945.55
2016-04-04T06:56:57.602Z,945.61
2016-04-04T06:57:57.621Z,945.6
2016-04-04T06:58:57.638Z,945.61
2016-04-04T06:59:57.657Z,945.55
2016-04-04T07:00:57.680Z,945.6
2016-04-04T07:01:57.699Z,945.63
2016-04-04T07:02:57.717Z,945.66
2016-04-04T07:03:57.751Z,945.66
2016-04-04T07:04:57.768Z,945.69
2016-04-04T07:05:57.788Z,945.72
2016-04-04T07:06:57.806Z,945.7
2016-04-04T07:07:57.824Z,945.71
2016-04-04T07:08:57.858Z,945.73
2016-04-04T07:09:57.876Z,945.76
2016-04-04T07:10:57.894Z,945.77
2016-04-04T07:11:57.912Z,945.8
2016-04-04T07:12:57.931Z,945.81
2016-04-04T07:13:57.964Z,945.77
2016-04-04T07:14:57.984Z,945.78
2016-04-04T07:15:58.002Z,945.83
2016-04-04T07:16:58.019Z,945.84
2016-04-04T07:17:58.053Z,945.82
2016-04-04T07:18:58.072Z,945.86
2016-04-04T07:19:58.091Z,945.81
2016-04-04T07:20:58.108Z,945.81
2016-04-04T07:21:58.144Z,945.81
2016-04-04T07:22:58.161Z,945.78
2016-04-04T07:23:58.180Z,945.81
2016-04-04T07:24:58.197Z,945.8
2016-04-04T07:25:58.216Z,945.82
2016-04-04T07:26:58.250Z,945.83
2016-04-04T07:27:58.269Z,945.86
2016-04-04T07:28:58.287Z,945.83
2016-04-04T07:29:58.304Z,945.9
2016-04-04T07:30:58.339Z,946.1
2016-04-04T07:31:58.358Z,946.01
2016-04-04T07:32:58.391Z,945.93
2016-04-04T07:33:58.409Z,945.98
2016-04-04T07:34:58.429Z,945.96
2016-04-04T07:35:58.445Z,945.96
2016-04-04T07:36:58.480Z,945.97
2016-04-04T07:37:58.498Z,946.01
2016-04-04T07:38:58.532Z,946.03
2016-04-04T07:39:58.535Z,946.04
2016-04-04T07:40:58.570Z,946.22
2016-04-04T07:41:58.587Z,946.21
2016-04-04T07:42:58.620Z,946.1
2016-04-04T07:43:58.656Z,946.14
2016-04-04T07:44:58.659Z,946.19
2016-04-04T07:45:58.692Z,946.07
2016-04-04T07:46:58.710Z,946.23
2016-04-04T07:47:58.728Z,946.12
2016-04-04T07:48:58.762Z,946.2
2016-04-04T07:49:58.781Z,946.23
2016-04-04T07:50:58.799Z,946.24
2016-04-04T07:51:58.833Z,946.29
2016-04-04T07:52:58.851Z,946.26
2016-04-04T07:53:58.886Z,946.31
2016-04-04T07:54:58.903Z,946.33
2016-04-04T07:55:58.937Z,946.28
2016-04-04T07:56:58.956Z,946.29
2016-04-04T07:57:58.974Z,946.31
2016-04-04T07:58:59.008Z,946.27
2016-04-04T07:59:59.041Z,946.28
2016-04-04T08:00:59.060Z,946.28
2016-04-04T08:01:59.078Z,946.28
2016-04-04T08:02:59.113Z,946.27
2016-04-04T08:03:59.146Z,946.3
2016-04-04T08:04:59.165Z,946.31
2016-04-04T08:05:59.183Z,946.31
2016-04-04T08:06:59.218Z,946.32
2016-04-04T08:07:59.251Z,946.32
2016-04-04T08:08:59.269Z,946.3
2016-04-04T08:09:59.303Z,946.4
2016-04-04T08:10:59.321Z,946.35
2016-04-04T08:11:59.356Z,946.36
2016-04-04T08:12:59.373Z,946.4
2016-04-04T08:13:59.408Z,946.39
2016-04-04T08:14:59.441Z,946.41
2016-04-04T08:15:59.459Z,946.39
2016-04-04T08:16:59.494Z,946.43
2016-04-04T08:17:59.528Z,946.42
2016-04-04T08:18:59.547Z,946.4
2016-04-04T08:19:59.580Z,946.45
2016-04-04T08:20:59.598Z,946.39
2016-04-04T08:21:59.633Z,946.39
2016-04-04T08:22:59.666Z,946.37
2016-04-04T08:23:59.685Z,946.34
2016-04-04T08:24:59.719Z,946.32
2016-04-04T08:25:59.753Z,946.4
2016-04-04T08:26:59.771Z,946.39
2016-04-04T08:27:59.805Z,946.39
2016-04-04T08:28:59.838Z,946.43
2016-04-04T08:29:59.858Z,946.41
2016-04-04T08:30:59.891Z,946.44
2016-04-04T08:31:59.925Z,946.52
2016-04-04T08:32:59.943Z,946.48
2016-04-04T08:33:59.967Z,946.46
2016-04-04T08:34:59.989Z,946.46
2016-04-04T08:36:00.012Z,946.43
2016-04-04T08:37:00.034Z,946.5
2016-04-04T08:38:00.040Z,946.63
2016-04-04T08:39:00.069Z,946.71
2016-04-04T08:40:00.082Z,946.7
2016-04-04T08:41:00.112Z,946.67
2016-04-04T08:42:00.142Z,946.69
2016-04-04T08:43:00.171Z,946.66
2016-04-04T08:44:00.203Z,946.65
2016-04-04T08:45:00.220Z,946.66
2016-04-04T08:46:00.253Z,946.53
2016-04-04T08:47:00.286Z,946.48
2016-04-04T08:48:00.317Z,946.42
2016-04-04T08:49:00.351Z,946.41
2016-04-04T08:50:00.383Z,946.42
2016-04-04T08:51:00.417Z,946.5
2016-04-04T08:52:00.450Z,946.48
2016-04-04T08:53:00.483Z,946.48
2016-04-04T08:54:00.516Z,946.46
2016-04-04T08:55:00.551Z,946.4
2016-04-04T08:56:00.584Z,946.38
2016-04-04T08:57:00.617Z,946.42
2016-04-04T08:58:00.650Z,946.52
2016-04-04T08:59:00.685Z,946.49
2016-04-04T09:00:00.719Z,946.49
2016-04-04T09:01:00.753Z,946.47
2016-04-04T09:02:00.786Z,946.44
2016-04-04T09:03:00.820Z,946.44
2016-04-04T09:04:00.855Z,946.43
2016-04-04T09:05:00.888Z,946.38
2016-04-04T09:06:00.922Z,946.43
2016-04-04T09:07:00.956Z,946.43
2016-04-04T09:08:00.990Z,946.42
2016-04-04T09:09:01.040Z,946.39
2016-04-04T09:10:01.074Z,946.4
2016-04-04T09:11:01.092Z,946.37
2016-04-04T09:12:01.126Z,946.47
2016-04-04T09:13:01.159Z,946.44
2016-04-04T09:14:01.209Z,946.42
2016-04-04T09:15:01.243Z,946.45
2016-04-04T09:16:01.277Z,946.38
2016-04-04T09:17:01.311Z,946.38
2016-04-04T09:18:01.345Z,946.4
2016-04-04T09:19:01.395Z,946.41
2016-04-04T09:20:01.412Z,946.44
2016-04-04T09:21:01.447Z,946.39
2016-04-04T09:22:01.481Z,946.42
2016-04-04T09:23:01.514Z,946.38
2016-04-04T09:24:01.548Z,946.39
2016-04-04T09:25:01.583Z,946.38
2016-04-04T09:26:01.617Z,946.36
2016-04-04T09:27:01.666Z,946.38
2016-04-04T09:28:01.684Z,946.26
2016-04-04T09:29:01.719Z,946.33
2016-04-04T09:30:01.752Z,946.41
2016-04-04T09:31:01.786Z,946.45
2016-04-04T09:32:01.820Z,946.43
2016-04-04T09:33:01.869Z,946.36
2016-04-04T09:34:01.888Z,946.32
2016-04-04T09:35:01.922Z,946.36
2016-04-04T09:36:01.971Z,946.37
2016-04-04T09:37:01.990Z,946.38
2016-04-04T09:38:02.024Z,946.37
2016-04-04T09:39:02.058Z,946.38
2016-04-04T09:40:02.091Z,946.39
2016-04-04T09:41:02.141Z,946.4
2016-04-04T09:42:02.159Z,946.35
2016-04-04T09:43:02.193Z,946.37
2016-04-04T09:44:02.227Z,946.39
2016-04-04T09:45:02.277Z,946.37
2016-04-04T09:46:02.296Z,946.38
2016-04-04T09:47:02.329Z,946.4
2016-04-04T09:48:02.362Z,946.36
2016-04-04T09:49:02.398Z,946.42
2016-04-04T09:50:02.432Z,946.41
2016-04-04T09:51:02.465Z,946.38
2016-04-04T09:52:02.498Z,946.41
2016-04-04T09:53:02.548Z,946.35
2016-04-04T09:54:02.566Z,946.37
2016-04-04T09:55:02.600Z,946.38
2016-04-04T09:56:02.635Z,946.37
2016-04-04T09:57:02.684Z,946.33
2016-04-04T09:58:02.703Z,946.3
2016-04-04T09:59:02.736Z,946.3
2016-04-04T10:00:02.786Z,946.38
2016-04-04T10:01:02.820Z,946.37
2016-04-04T10:02:02.855Z,946.37
2016-04-04T10:03:02.889Z,946.41
2016-04-04T10:04:02.922Z,946.41
2016-04-04T10:05:02.955Z,946.41
2016-04-04T10:06:02.990Z,946.4
2016-04-04T10:07:03.024Z,946.43
2016-04-04T10:08:03.058Z,946.42
2016-04-04T10:09:03.091Z,946.4
2016-04-04T10:10:03.130Z,946.42
2016-04-04T10:11:03.164Z,946.4
2016-04-04T10:12:03.199Z,946.41
2016-04-04T10:13:03.232Z,946.41
2016-04-04T10:14:03.266Z,946.38
2016-04-04T10:15:03.300Z,946.41
2016-04-04T10:16:03.350Z,946.4
2016-04-04T10:17:03.368Z,946.37
2016-04-04T10:18:03.418Z,946.36
2016-04-04T10:19:03.436Z,946.36
2016-04-04T10:20:03.486Z,946.4
2016-04-04T10:21:03.519Z,946.39
2016-04-04T10:22:03.553Z,946.41
2016-04-04T10:23:03.587Z,946.38
2016-04-04T10:24:03.622Z,946.35
2016-04-04T10:25:03.655Z,946.37
2016-04-04T10:26:03.689Z,946.33
2016-04-04T10:27:03.755Z,946.35
2016-04-04T10:28:03.758Z,946.32
2016-04-04T10:29:03.791Z,946.33
2016-04-04T10:30:03.841Z,946.31
2016-04-04T10:31:03.874Z,946.32
2016-04-04T10:32:03.908Z,946.24
2016-04-04T10:33:03.941Z,946.23
2016-04-04T10:34:03.977Z,946.24
2016-04-04T10:35:04.027Z,946.16
2016-04-04T10:36:04.044Z,946.21
2016-04-04T10:37:04.093Z,946.12
2016-04-04T10:38:04.112Z,946.12
2016-04-04T10:39:04.145Z,946.15
2016-04-04T10:40:04.179Z,946.07
2016-04-04T10:41:04.230Z,946.05
2016-04-04T10:42:04.263Z,946.06
2016-04-04T10:43:04.298Z,945.99
2016-04-04T10:44:04.346Z,945.99
2016-04-04T10:45:04.365Z,946
2016-04-04T10:46:04.399Z,945.99
2016-04-04T10:47:04.434Z,946.01
2016-04-04T10:48:04.467Z,945.98
2016-04-04T10:49:04.501Z,946.01
2016-04-04T10:50:04.534Z,946
2016-04-04T10:51:04.584Z,945.94
2016-04-04T10:52:04.618Z,945.98
2016-04-04T10:53:04.653Z,945.98
2016-04-04T10:54:04.686Z,945.98
2016-04-04T10:55:04.720Z,945.98
2016-04-04T10:56:04.753Z,945.95
2016-04-04T10:57:04.788Z,945.96
2016-04-04T10:58:04.822Z,945.96
2016-04-04T10:59:04.856Z,945.91
2016-04-04T11:00:04.889Z,945.88
2016-04-04T11:01:04.924Z,945.92
2016-04-04T11:02:04.958Z,945.94
2016-04-04T11:03:04.992Z,945.9
2016-04-04T11:04:05.025Z,945.9
2016-04-04T11:05:05.060Z,945.9
2016-04-04T11:06:05.093Z,945.89
2016-04-04T11:07:05.128Z,945.85
2016-04-04T11:08:05.161Z,945.81
2016-04-04T11:09:05.221Z,945.82
2016-04-04T11:10:05.223Z,945.77
2016-04-04T11:11:05.257Z,945.77
2016-04-04T11:12:05.291Z,945.74
2016-04-04T11:13:05.325Z,945.77
2016-04-04T11:14:05.359Z,945.77
2016-04-04T11:15:05.393Z,945.73
2016-04-04T11:16:05.427Z,945.71
2016-04-04T11:17:05.461Z,945.69
2016-04-04T11:18:05.495Z,945.75
2016-04-04T11:19:05.529Z,945.72
2016-04-04T11:20:05.563Z,945.71
2016-04-04T11:21:05.597Z,945.71
2016-04-04T11:22:05.631Z,945.7
2016-04-04T11:23:05.665Z,945.69
2016-04-04T11:24:05.699Z,945.7
2016-04-04T11:25:05.733Z,945.67
2016-04-04T11:26:05.767Z,945.71
2016-04-04T11:27:05.800Z,945.66
2016-04-04T11:28:05.835Z,945.64
2016-04-04T11:29:05.869Z,945.6
2016-04-04T11:30:05.918Z,945.59
2016-04-04T11:31:05.936Z,945.58
2016-04-04T11:32:05.970Z,945.55
2016-04-04T11:33:06.004Z,945.53
2016-04-04T11:34:06.037Z,945.55
2016-04-04T11:35:06.071Z,945.57
2016-04-04T11:36:06.106Z,945.57
2016-04-04T11:37:06.139Z,945.53
2016-04-04T11:38:06.173Z,945.52
2016-04-04T11:39:06.198Z,945.51
2016-04-04T11:40:06.231Z,945.48
2016-04-04T11:41:06.281Z,945.46
2016-04-04T11:42:06.314Z,945.46
2016-04-04T11:43:06.426Z,945.46
2016-04-04T11:44:06.367Z,945.47
2016-04-04T11:45:06.400Z,945.46
2016-04-04T11:46:06.434Z,945.44
2016-04-04T11:47:06.483Z,945.46
2016-04-04T11:48:06.502Z,945.42
2016-04-04T11:49:06.536Z,945.39
2016-04-04T11:50:06.569Z,945.35
2016-04-04T11:51:06.619Z,945.36
2016-04-04T11:52:06.638Z,945.34
2016-04-04T11:53:06.672Z,945.35
2016-04-04T11:54:06.705Z,945.34
2016-04-04T11:55:06.741Z,945.34
2016-04-04T11:56:06.774Z,945.37
2016-04-04T11:57:06.808Z,945.33
2016-04-04T11:58:06.842Z,945.29
2016-04-04T11:59:06.876Z,945.25
2016-04-04T12:00:06.925Z,945.31
2016-04-04T12:01:06.943Z,945.25
2016-04-04T12:02:06.977Z,945.19
2016-04-04T12:03:07.012Z,945.18
2016-04-04T12:04:07.045Z,945.17
2016-04-04T12:05:07.079Z,945.19
2016-04-04T12:06:07.112Z,945.2
2016-04-04T12:07:07.131Z,945.19
2016-04-04T12:08:07.165Z,945.21
2016-04-04T12:09:07.198Z,945.18
2016-04-04T12:10:07.234Z,945.16
2016-04-04T12:11:07.267Z,945.12
2016-04-04T12:12:07.301Z,945.18
2016-04-04T12:13:07.335Z,945.11
2016-04-04T12:14:07.370Z,945.13
2016-04-04T12:15:07.403Z,945.15
2016-04-04T12:16:07.437Z,945.11
2016-04-04T12:17:07.470Z,945.17
2016-04-04T12:18:07.505Z,945.14
2016-04-04T12:19:07.539Z,945.15
2016-04-04T12:20:07.557Z,945.14
2016-04-04T12:21:07.592Z,945.13
2016-04-04T12:22:07.625Z,945.19
2016-04-04T12:23:07.659Z,945.17
2016-04-04T12:24:07.694Z,945.18
2016-04-04T12:25:07.727Z,945.14
2016-04-04T12:26:07.761Z,945.12
2016-04-04T12:27:07.795Z,945.08
2016-04-04T12:28:07.829Z,945.09
2016-04-04T12:29:07.863Z,945.1
2016-04-04T12:30:07.896Z,945.11
2016-04-04T12:31:07.930Z,945.05
2016-04-04T12:32:07.965Z,945.07
2016-04-04T12:33:07.982Z,945.05